Weather at King City Airport [CLOSED]

Public forecast

Using degrees Celsius for public forecast. Weather courtesy of forecast.io.

Closest aviation weather report (METAR) to King City Airport

Closest report is Toronto Lester B. Pearson International Airport, 14.1 nm (26.1 km) SSW.

2024/05/30 03:00 (retrieved 1 hour ago)

CYYZ 300300Z 34013G18KT 15SM SKC 13/00 A3006 RMK SLP181

Closest aviation forecast (TAF) to King City Airport

Forecast is more than 6 hours old.

Closest forecast is Niagara District Airport, 46.1 nm (85.3 km) SSE.

2024/05/29 20:00 (retrieved 8 hours ago)

TAF CYSN 291941Z 2920/3001 36008KT P6SM SCT120 RMK NXT FCST BY 301300Z